Time;durP1;ratioP1;P1;durP2;ratioP2;P2;SDS_P1;SDS_P2;PMS_P1;PMS_P2;Temp;Humidity;BMP_temperature;BMP_pressure;BME280_temperature;BME280_humidity;BME280_pressure;Samples;Min_cycle;Max_cycle;Signal;HPM_P1;HPM_P2
2022/08/13 00:00:59;;;;;;;3.08;2.35;;;;;;;23.04;36.20;101576.75;4956745;28;124675;-74
2022/08/13 00:03:29;;;;;;;2.85;2.30;;;;;;;22.97;36.22;101567.44;4960779;28;115200;-74
2022/08/13 00:06:25;;;;;;;5.60;2.63;;;;;;;22.91;36.36;101576.06;4957365;28;114300;-74
2022/08/13 00:08:56;;;;;;;3.13;2.33;;;;;;;22.83;36.50;101567.75;4959235;28;124267;-74
2022/08/13 00:14:35;;;;;;;4.15;2.50;;;;;;;22.70;37.01;101567.97;4958641;28;114710;-74
2022/08/13 00:17:08;;;;;;;3.15;2.38;;;;;;;22.64;37.20;101569.34;4956926;28;114638;-74
2022/08/13 00:19:38;;;;;;;4.15;2.70;;;;;;;22.58;37.51;101572.53;4955351;28;122304;-74
2022/08/13 00:22:08;;;;;;;7.70;2.67;;;;;;;22.52;37.50;101565.81;4944017;28;122664;-74
2022/08/13 00:25:01;;;;;;;3.80;2.45;;;;;;;22.48;37.66;101574.31;4945773;28;113737;-74
2022/08/13 00:27:36;;;;;;;3.83;2.55;;;;;;;22.45;37.63;101574.56;4954408;28;114246;-74
2022/08/13 00:30:30;;;;;;;4.20;2.42;;;;;;;22.41;37.70;101573.09;4931527;28;123653;-74
2022/08/13 00:33:12;;;;;;;4.22;2.45;;;;;;;22.38;37.95;101573.34;4953808;28;123755;-74
2022/08/13 00:35:47;;;;;;;5.10;2.30;;;;;;;22.35;37.70;101580.72;4957134;28;114315;-74
2022/08/13 00:38:22;;;;;;;3.03;2.17;;;;;;;22.33;37.81;101569.19;4953720;28;113922;-74
2022/08/13 00:41:04;;;;;;;5.45;2.60;;;;;;;22.31;37.93;101573.88;4953211;28;124037;-74
2022/08/13 00:43:33;;;;;;;4.47;2.33;;;;;;;22.30;37.79;101565.91;4952491;28;123801;-74
2022/08/13 00:46:02;;;;;;;4.50;2.10;;;;;;;22.27;37.90;101561.63;4949530;28;113196;-74
2022/08/13 00:48:46;;;;;;;3.15;2.25;;;;;;;22.25;37.99;101574.38;4953102;28;113558;-74
2022/08/13 00:51:26;;;;;;;4.38;2.55;;;;;;;22.20;37.98;101573.88;4949023;28;124220;-74
2022/08/13 00:54:17;;;;;;;4.18;2.70;;;;;;;22.15;37.99;101574.28;4953468;28;123989;-74
2022/08/13 00:56:45;;;;;;;3.72;2.83;;;;;;;22.13;37.81;101569.97;4932841;28;113855;-74
2022/08/13 00:59:13;;;;;;;5.75;3.78;;;;;;;22.10;38.05;101570.22;4962219;28;115087;-74
2022/08/13 01:01:44;;;;;;;7.20;4.22;;;;;;;22.08;37.99;101572.22;4961490;28;124758;-74
2022/08/13 01:04:20;;;;;;;7.33;4.43;;;;;;;22.05;38.06;101572.44;4960058;28;124649;-75
2022/08/13 01:06:50;;;;;;;;;;;;;;;21.99;37.36;101575.66;4966837;28;115203;-75
2022/08/13 01:09:18;;;;;;;7.90;4.78;;;;;;;21.97;37.85;101579.31;4953557;28;114504;-75
2022/08/13 01:12:09;;;;;;;7.38;4.57;;;;;;;21.92;38.15;101578.84;4936056;28;123179;-74
2022/08/13 01:14:46;;;;;;;7.93;5.07;;;;;;;21.87;38.36;101575.69;4946416;28;122911;-74
2022/08/13 01:17:22;;;;;;;6.90;4.70;;;;;;;21.83;38.53;101574.22;4956554;28;114451;-74
2022/08/13 01:19:52;;;;;;;5.55;3.83;;;;;;;21.80;38.58;101577.16;4946946;28;113028;-74
2022/08/13 01:22:29;;;;;;;6.72;4.28;;;;;;;21.76;38.67;101573.84;4956287;28;123925;-74
2022/08/13 01:25:11;;;;;;;10.93;5.82;;;;;;;21.74;38.82;101575.81;4955667;28;122920;-74
2022/08/13 01:27:41;;;;;;;8.60;5.55;;;;;;;21.72;39.03;101571.53;4957332;28;114263;-74
2022/08/13 01:30:14;;;;;;;7.43;5.10;;;;;;;21.69;38.79;101571.75;4943658;28;113579;-74
2022/08/13 01:32:42;;;;;;;8.50;5.20;;;;;;;21.66;39.08;101577.41;4954861;28;123999;-74
2022/08/13 01:35:23;;;;;;;9.38;5.43;;;;;;;21.62;38.98;101570.53;4943849;28;123229;-74
2022/08/13 01:37:54;;;;;;;8.63;5.90;;;;;;;21.57;39.41;101574.47;4949819;28;114528;-75
2022/08/13 01:40:31;;;;;;;7.82;5.63;;;;;;;21.51;39.15;101572.28;4930371;28;113497;-74
2022/08/13 01:43:00;;;;;;;8.73;5.55;;;;;;;21.48;39.19;101574.34;4952013;28;123967;-74
2022/08/13 01:45:49;;;;;;;7.38;4.93;;;;;;;21.43;39.33;101571.97;4952233;28;124153;-74
2022/08/13 01:51:32;;;;;;;6.18;4.60;;;;;;;21.33;39.87;101571.84;4941711;28;114069;-74
2022/08/13 01:54:11;;;;;;;6.47;4.60;;;;;;;21.29;39.73;101577.63;4956534;28;123664;-74
2022/08/13 01:57:00;;;;;;;7.93;4.60;;;;;;;21.24;40.08;101577.09;4956679;28;123102;-74
2022/08/13 01:59:30;;;;;;;9.27;4.60;;;;;;;21.18;40.07;101573.91;4960217;28;113721;-74
2022/08/13 02:02:18;;;;;;;9.98;4.53;;;;;;;21.12;40.03;101579.78;4947594;28;115531;-75
2022/08/13 02:05:02;;;;;;;6.20;4.45;;;;;;;21.06;40.26;101585.66;4954402;28;123895;-74
2022/08/13 02:07:30;;;;;;;8.25;4.18;;;;;;;21.04;40.58;101575.97;4956863;28;123378;-74
2022/08/13 02:10:22;;;;;;;12.40;5.10;;;;;;;21.01;40.73;101571.69;4955110;28;114143;-74
2022/08/13 02:12:51;;;;;;;11.77;4.70;;;;;;;20.97;40.71;101570.22;4959135;28;113987;-73
2022/08/13 02:15:20;;;;;;;11.60;4.93;;;;;;;20.94;40.78;101576.66;4935347;28;122973;-74
2022/08/13 02:18:19;;;;;;;8.13;5.03;;;;;;;20.89;40.65;101573.50;4945408;28;123444;-74
2022/08/13 02:20:53;;;;;;;9.00;5.30;;;;;;;20.85;40.87;101577.41;4966085;28;114259;-74
2022/08/13 02:23:25;;;;;;;;;;;;;;;20.79;39.85;101573.34;4989726;28;113504;-73
2022/08/13 02:26:13;;;;;;;8.05;4.78;;;;;;;20.78;40.47;101577.00;4987427;28;125025;-74
2022/08/13 02:28:42;;;;;;;6.68;4.75;;;;;;;20.76;40.72;101578.97;4980787;28;124500;-74
2022/08/13 02:31:17;;;;;;;6.90;5.43;;;;;;;20.73;40.67;101579.19;4957526;28;112842;-74
2022/08/13 02:34:05;;;;;;;6.03;4.97;;;;;;;20.69;40.92;101583.09;4951156;28;113162;-74
2022/08/13 02:36:41;;;;;;;5.75;4.70;;;;;;;20.65;40.85;101587.00;4953076;28;124175;-74
2022/08/13 02:39:14;;;;;;;7.28;5.15;;;;;;;20.62;41.08;101584.53;4932734;28;122866;-74
2022/08/13 02:41:43;;;;;;;6.32;4.82;;;;;;;20.59;41.22;101582.06;4949139;28;114559;-74
2022/08/13 02:44:25;;;;;;;6.57;5.00;;;;;;;20.57;41.39;101578.63;4956259;28;114271;-74
2022/08/13 02:47:04;;;;;;;8.18;5.53;;;;;;;20.55;41.53;101580.53;4963870;28;123089;-74
2022/08/13 02:49:36;;;;;;;8.63;6.10;;;;;;;20.52;41.46;101583.50;4950804;28;123322;-74
2022/08/13 02:52:14;;;;;;;7.97;5.93;;;;;;;20.51;41.39;101579.06;4950615;28;115461;-74
2022/08/13 02:54:44;;;;;;;8.27;5.85;;;;;;;20.48;41.58;101580.16;4958792;28;114834;-74
2022/08/13 02:57:23;;;;;;;9.30;6.30;;;;;;;20.42;41.55;101576.09;4957244;28;122473;-74
2022/08/13 02:59:50;;;;;;;7.10;5.78;;;;;;;20.38;41.63;101574.63;4962264;28;125227;-74
2022/08/13 03:02:44;;;;;;;10.07;5.70;;;;;;;20.33;41.80;101571.41;4956304;28;114667;-74
2022/08/13 03:05:17;;;;;;;8.32;5.90;;;;;;;20.29;41.96;101580.69;4959062;28;114473;-74
2022/08/13 03:07:47;;;;;;;7.90;5.70;;;;;;;20.26;41.92;101575.53;4954507;28;123960;-74
2022/08/13 03:10:22;;;;;;;7.72;5.50;;;;;;;20.23;41.98;101575.78;4955205;28;124008;-74
2022/08/13 03:13:27;;;;;;;8.35;5.15;;;;;;;20.16;42.08;101569.97;4957988;28;114799;-74
2022/08/13 03:16:14;;;;;;;7.60;4.93;;;;;;;20.13;42.17;101574.72;4951813;28;113707;-74
2022/08/13 03:18:47;;;;;;;5.85;4.93;;;;;;;20.08;42.62;101582.25;4951711;28;124732;-74
2022/08/13 03:21:28;;;;;;;8.93;4.90;;;;;;;20.03;42.65;101586.16;4956696;28;124184;-74
2022/08/13 03:24:13;;;;;;;5.50;4.90;;;;;;;20.02;42.66;101584.44;4956801;28;113504;-74
2022/08/13 03:26:49;;;;;;;12.38;4.78;;;;;;;20.00;42.56;101581.03;4956190;28;114503;-74
2022/08/13 03:29:22;;;;;;;12.32;5.25;;;;;;;19.99;42.82;101583.81;4955480;28;124366;-74
2022/08/13 03:32:10;;;;;;;8.23;4.80;;;;;;;19.97;42.68;101583.91;4955339;28;124296;-74
2022/08/13 03:34:40;;;;;;;6.80;5.28;;;;;;;19.96;42.86;101590.25;4955223;28;116155;-74
2022/08/13 03:37:10;;;;;;;11.02;4.85;;;;;;;19.92;42.83;101588.75;4950350;28;112870;-74
2022/08/13 03:39:38;;;;;;;6.20;4.80;;;;;;;19.91;42.70;101587.06;4962087;28;123544;-74
2022/08/13 03:42:08;;;;;;;7.97;5.13;;;;;;;19.89;43.10;101586.31;4960816;28;124131;-74
2022/08/13 03:44:41;;;;;;;8.20;5.03;;;;;;;19.84;43.09;101585.78;4949395;28;114450;-74
2022/08/13 03:47:09;;;;;;;7.97;5.05;;;;;;;19.81;43.21;101586.00;4954232;28;114904;-74
2022/08/13 03:50:02;;;;;;;5.40;4.50;;;;;;;19.78;43.10;101586.25;4955029;28;123913;-74
2022/08/13 03:52:30;;;;;;;8.40;4.40;;;;;;;19.74;43.19;101584.72;4952027;28;124123;-74
2022/08/13 03:55:18;;;;;;;7.20;4.55;;;;;;;19.72;43.39;101581.25;4949944;28;113714;-74
2022/08/13 03:57:46;;;;;;;8.77;4.75;;;;;;;19.71;43.27;101579.53;4948654;28;114086;-74
2022/08/13 04:00:38;;;;;;;8.35;4.47;;;;;;;19.70;43.39;101577.81;4947001;28;123181;-74
2022/08/13 04:03:29;;;;;;;8.40;4.13;;;;;;;19.68;43.29;101579.75;4955049;28;123866;-74
2022/08/13 04:06:01;;;;;;;5.45;3.97;;;;;;;19.68;43.37;101574.38;4963641;28;113970;-73
2022/08/13 04:08:34;;;;;;;4.45;3.80;;;;;;;19.71;43.38;101579.53;4952277;28;112873;-74
2022/08/13 04:11:05;;;;;;;7.10;3.78;;;;;;;19.72;43.32;101582.16;4953911;28;124847;-74
2022/08/13 04:13:36;;;;;;;9.25;3.72;;;;;;;19.73;43.25;101583.00;4946296;28;123188;-74
2022/08/13 04:16:25;;;;;;;5.28;3.75;;;;;;;19.73;43.24;101578.50;4960782;28;114008;-74
2022/08/13 04:18:59;;;;;;;;;;;;;;;19.71;42.31;101582.22;4961153;28;113710;-74
2022/08/13 04:21:31;;;;;;;4.20;3.22;;;;;;;19.71;42.87;101574.16;4962917;28;123890;-74
2022/08/13 04:24:04;;;;;;;6.35;3.25;;;;;;;19.72;42.87;101579.47;4960954;28;124504;-74
2022/08/13 04:26:33;;;;;;;6.40;3.17;;;;;;;19.74;43.02;101582.03;4962164;28;114907;-74
2022/08/13 04:29:04;;;;;;;4.50;3.13;;;;;;;19.75;43.06;101586.44;4963040;28;116410;-75
2022/08/13 04:31:34;;;;;;;3.80;2.88;;;;;;;19.77;42.96;101584.50;4942758;28;124074;-76
2022/08/13 04:34:15;;;;;;;4.88;3.10;;;;;;;19.78;43.11;101587.09;4922122;28;123462;-76
2022/08/13 04:37:03;;;;;;;5.22;3.03;;;;;;;19.80;43.11;101584.28;4955736;28;114758;-76
2022/08/13 04:39:30;;;;;;;4.43;2.72;;;;;;;19.80;42.95;101586.97;4938045;28;114160;-75
2022/08/13 04:42:18;;;;;;;6.05;3.30;;;;;;;19.81;43.02;101596.75;4964946;28;123812;-76
2022/08/13 04:44:58;;;;;;;4.82;3.22;;;;;;;19.81;43.07;101586.84;4967800;28;123561;-76
2022/08/13 04:47:30;;;;;;;4.45;3.25;;;;;;;19.82;43.26;101593.09;4943384;28;114086;-76
2022/08/13 04:49:57;;;;;;;6.82;3.58;;;;;;;19.80;43.34;101584.28;4951277;28;113871;-76
2022/08/13 04:52:25;;;;;;;5.68;2.95;;;;;;;19.78;43.36;101591.63;4957682;28;124103;-76
2022/08/13 04:55:10;;;;;;;4.70;3.20;;;;;;;19.78;43.26;101597.00;4950554;28;123122;-76
2022/08/13 04:57:41;;;;;;;3.45;3.15;;;;;;;19.80;43.36;101595.03;4957897;28;113682;-76
2022/08/13 05:00:24;;;;;;;5.05;2.70;;;;;;;19.81;43.42;101591.38;4959697;28;114282;-76
2022/08/13 05:02:52;;;;;;;6.95;3.30;;;;;;;19.82;43.48;101598.47;4962520;28;124154;-76
2022/08/13 05:05:24;;;;;;;4.53;3.00;;;;;;;19.84;43.33;101599.22;4944293;28;124196;-76
2022/08/13 05:07:52;;;;;;;4.93;3.42;;;;;;;19.84;43.49;101596.53;4962136;28;115045;-76
2022/08/13 05:10:20;;;;;;;4.72;3.25;;;;;;;19.86;43.75;101597.28;4959881;28;114296;-76
2022/08/13 05:13:03;;;;;;;4.80;3.22;;;;;;;19.88;43.69;101600.72;4951703;28;124075;-76
2022/08/13 05:15:36;;;;;;;4.20;3.00;;;;;;;19.91;43.54;101597.81;4961849;28;123964;-76
2022/08/13 05:18:15;;;;;;;4.00;2.80;;;;;;;19.95;43.56;101604.69;4954289;28;114324;-76
2022/08/13 05:20:54;;;;;;;4.60;2.90;;;;;;;19.99;43.19;101611.56;4958860;28;114007;-76
2022/08/13 05:23:23;;;;;;;3.95;2.50;;;;;;;20.05;43.36;101606.72;4965111;28;125301;-76
2022/08/13 05:26:11;;;;;;;5.75;2.53;;;;;;;20.10;43.44;101612.59;4956036;28;125230;-76
2022/08/13 05:29:04;;;;;;;3.30;2.30;;;;;;;20.16;43.47;101613.00;4952814;28;114576;-76
2022/08/13 05:31:34;;;;;;;3.15;2.38;;;;;;;20.23;43.34;101605.38;4961195;28;114069;-76
2022/08/13 05:34:21;;;;;;;4.57;2.45;;;;;;;20.30;43.28;101601.22;4959596;28;125946;-76
2022/08/13 05:36:48;;;;;;;5.15;2.55;;;;;;;20.35;43.37;101601.75;4964081;28;124544;-76
2022/08/13 05:39:35;;;;;;;4.18;2.42;;;;;;;20.41;43.40;101601.28;4960531;28;114302;-76
2022/08/13 05:42:13;;;;;;;5.00;2.13;;;;;;;20.49;43.44;101591.78;4959269;28;113613;-76
2022/08/13 05:44:43;;;;;;;3.53;2.50;;;;;;;20.55;43.46;101588.63;4966063;28;123292;-76
2022/08/13 05:47:14;;;;;;;3.63;2.40;;;;;;;20.63;43.35;101593.47;4952088;28;123894;-76
2022/08/13 05:49:43;;;;;;;2.72;2.00;;;;;;;20.69;43.40;101599.25;4965222;28;113336;-76
2022/08/13 05:52:30;;;;;;;5.30;2.20;;;;;;;20.77;43.62;101595.97;4966828;28;113684;-76
2022/08/13 05:55:11;;;;;;;7.70;2.20;;;;;;;20.85;43.65;101598.06;4967338;28;122878;-76
2022/08/13 05:57:58;;;;;;;4.90;2.28;;;;;;;20.92;43.52;101599.31;4964669;28;124057;-76
2022/08/13 06:03:31;;;;;;;5.43;2.50;;;;;;;21.08;43.38;101605.25;4966676;28;113982;-76
2022/08/13 06:06:22;;;;;;;4.60;2.38;;;;;;;21.18;43.20;101600.84;4966759;28;124260;-76
2022/08/13 06:08:58;;;;;;;5.07;2.30;;;;;;;21.28;43.49;101600.97;4940463;28;123031;-76
2022/08/13 06:11:29;;;;;;;3.67;2.28;;;;;;;21.38;43.54;101598.44;4964342;28;113244;-76
2022/08/13 06:14:20;;;;;;;3.63;2.30;;;;;;;21.48;43.51;101607.53;4954923;28;114447;-76
2022/08/13 06:16:51;;;;;;;3.55;2.25;;;;;;;21.57;43.38;101601.41;4969812;28;122949;-76
2022/08/13 06:19:23;;;;;;;2.80;2.28;;;;;;;21.67;43.44;101600.69;4967297;28;124940;-76
2022/08/13 06:22:02;;;;;;;4.05;2.00;;;;;;;21.77;43.40;101597.13;4954852;28;114616;-76
2022/08/13 06:24:32;;;;;;;2.55;1.98;;;;;;;21.87;43.29;101602.66;4964557;28;115136;-76
2022/08/13 06:27:04;;;;;;;3.80;2.22;;;;;;;22.00;43.23;101607.03;4957758;28;123243;-76
2022/08/13 06:29:45;;;;;;;2.35;2.00;;;;;;;22.10;43.48;101597.22;4967870;28;125049;-76
2022/08/13 06:32:21;;;;;;;3.38;2.00;;;;;;;22.22;43.30;101596.19;4955098;28;113375;-76
2022/08/13 06:35:08;;;;;;;4.43;2.17;;;;;;;22.37;43.28;101593.25;4961203;28;112951;-77
2022/08/13 06:37:41;;;;;;;3.03;1.83;;;;;;;22.50;43.07;101599.34;4968862;28;124599;-76
2022/08/13 06:40:22;;;;;;;3.22;1.80;;;;;;;22.66;43.20;101598.88;4962543;28;124415;-76
2022/08/13 06:43:01;;;;;;;5.43;2.00;;;;;;;22.82;43.00;101601.16;4953181;28;114615;-77
2022/08/13 06:45:29;;;;;;;4.00;2.17;;;;;;;23.00;42.80;101606.81;4962579;28;112946;-77
2022/08/13 06:48:01;;;;;;;3.60;2.40;;;;;;;23.16;42.70;101604.56;4964708;28;124354;-77
2022/08/13 06:50:34;;;;;;;7.72;2.25;;;;;;;23.35;42.56;101601.09;4968606;28;124017;-74
2022/08/13 06:53:06;;;;;;;3.38;2.20;;;;;;;23.55;42.58;101609.34;4959833;28;114255;-74
2022/08/13 06:55:53;;;;;;;2.92;1.90;;;;;;;23.78;42.44;101597.31;4967721;28;113883;-75
2022/08/13 06:58:43;;;;;;;8.20;2.28;;;;;;;24.01;41.52;101602.53;4959547;28;124084;-75
2022/08/13 07:01:17;;;;;;;2.83;1.95;;;;;;;24.22;41.18;101606.03;4953398;28;123580;-76
2022/08/13 07:03:44;;;;;;;2.60;2.03;;;;;;;24.44;40.95;101604.06;4964113;28;113997;-75
2022/08/13 07:06:27;;;;;;;4.95;2.00;;;;;;;24.67;40.53;101600.09;4952723;28;113458;-75
2022/08/13 07:08:57;;;;;;;4.90;1.90;;;;;;;24.88;40.30;101607.19;4969636;28;124020;-75
2022/08/13 07:11:27;;;;;;;4.38;2.03;;;;;;;25.08;39.88;101608.03;4940186;28;122071;-75
2022/08/13 07:14:05;;;;;;;5.70;1.90;;;;;;;25.28;39.74;101603.47;4964436;28;115539;-75
2022/08/13 07:16:42;;;;;;;5.60;2.30;;;;;;;25.47;39.37;101596.25;4970416;28;115125;-75
2022/08/13 07:19:11;;;;;;;5.53;2.10;;;;;;;25.66;38.95;101601.63;4971770;28;124979;-76
2022/08/13 07:21:40;;;;;;;3.20;1.77;;;;;;;25.88;38.93;101610.38;4950079;28;122988;-76
2022/08/13 07:24:10;;;;;;;2.72;2.00;;;;;;;26.06;38.46;101603.16;4967018;28;115472;-76
2022/08/13 07:27:06;;;;;;;3.90;1.95;;;;;;;26.28;38.62;101614.63;4970945;28;113908;-75
2022/08/13 07:29:38;;;;;;;4.57;2.22;;;;;;;26.46;38.13;101606.47;4933599;28;122017;-75
2022/08/13 07:32:19;;;;;;;5.40;2.10;;;;;;;26.66;38.16;101607.19;4960918;28;124568;-75
2022/08/13 07:34:58;;;;;;;4.18;2.50;;;;;;;26.86;37.81;101611.47;4969032;28;117992;-75
2022/08/13 07:37:27;;;;;;;4.68;2.20;;;;;;;27.06;36.85;101605.81;4970925;28;113609;-75
2022/08/13 07:39:56;;;;;;;3.58;2.10;;;;;;;27.23;36.54;101607.63;4970387;28;124162;-75
2022/08/13 07:42:29;;;;;;;3.63;2.03;;;;;;;27.40;36.18;101613.22;4970701;28;123325;-76
2022/08/13 07:44:58;;;;;;;3.00;2.08;;;;;;;27.56;35.94;101603.28;4969486;28;116095;-75
2022/08/13 07:47:50;;;;;;;3.05;2.08;;;;;;;27.76;35.81;101612.06;4941375;28;111845;-76
2022/08/13 07:50:38;;;;;;;3.50;2.10;;;;;;;28.00;35.54;101610.47;4954481;28;123879;-75
2022/08/13 07:53:10;;;;;;;4.70;2.20;;;;;;;28.18;34.99;101607.63;4952831;28;122691;-76
2022/08/13 07:55:42;;;;;;;;;;;;;;;28.33;35.86;101605.09;4972829;28;113105;-75
2022/08/13 07:58:30;;;;;;;3.85;2.05;;;;;;;28.52;34.81;101604.81;4956510;28;114632;-76
2022/08/13 08:00:59;;;;;;;4.47;2.00;;;;;;;28.64;34.94;101604.50;4970855;28;122353;-75
2022/08/13 08:03:32;;;;;;;9.65;2.60;;;;;;;28.76;34.25;101611.31;4965161;28;122918;-75
2022/08/13 08:06:20;;;;;;;4.38;2.58;;;;;;;28.89;34.44;101611.63;4963464;28;115708;-75
2022/08/13 08:08:57;;;;;;;7.25;2.10;;;;;;;29.02;34.05;101604.81;4956567;28;113845;-75
2022/08/13 08:14:18;;;;;;;4.45;2.00;;;;;;;29.33;34.19;101606.84;4959564;28;122066;-75
2022/08/13 08:16:59;;;;;;;4.00;1.85;;;;;;;29.47;33.87;101615.16;4962377;28;114283;-74
2022/08/13 08:19:47;;;;;;;3.67;2.05;;;;;;;29.59;33.71;101607.47;4961865;28;113040;-74
2022/08/13 08:22:34;;;;;;;3.33;2.30;;;;;;;29.72;33.34;101608.78;4948895;28;123164;-74
2022/08/13 08:25:03;;;;;;;3.30;2.00;;;;;;;29.80;33.13;101608.75;4974329;28;123715;-74
2022/08/13 08:27:42;;;;;;;5.25;2.22;;;;;;;29.91;32.75;101611.09;4938915;28;113731;-74
2022/08/13 08:30:29;;;;;;;9.82;1.85;;;;;;;30.02;32.86;101607.97;4945765;28;113699;-74
2022/08/13 08:32:57;;;;;;;3.20;1.70;;;;;;;30.19;32.85;101618.81;4956858;28;124484;-74
2022/08/13 08:35:30;;;;;;;3.08;1.90;;;;;;;30.35;32.46;101613.28;4967015;28;124128;-74
2022/08/13 08:43:50;;;;;;;4.15;1.77;;;;;;;30.79;31.46;101614.50;4949597;28;124388;-74
2022/08/13 08:46:19;;;;;;;3.78;1.70;;;;;;;30.94;31.41;101611.84;4966580;28;123796;-74
2022/08/13 08:48:47;;;;;;;3.35;1.90;;;;;;;31.07;31.08;101606.59;4954537;28;113846;-75
2022/08/13 08:51:23;;;;;;;4.82;1.98;;;;;;;31.21;31.19;101613.97;4969712;28;112076;-75
2022/08/13 08:53:54;;;;;;;3.97;1.50;;;;;;;31.34;30.67;101617.94;4971614;28;123542;-74
2022/08/13 08:56:41;;;;;;;3.50;1.90;;;;;;;31.47;30.25;101620.91;4970539;28;123538;-75
2022/08/13 08:59:35;;;;;;;4.20;1.80;;;;;;;31.56;29.83;101611.56;4969059;28;114010;-74
2022/08/13 09:02:24;;;;;;;2.65;1.58;;;;;;;31.62;29.54;101604.47;4949805;28;114792;-74
2022/08/13 09:04:57;;;;;;;3.45;1.60;;;;;;;31.68;30.01;101602.84;4965928;28;123723;-75
2022/08/13 09:07:27;;;;;;;2.95;1.88;;;;;;;31.75;29.53;101604.66;4967696;28;122559;-75
2022/08/13 09:09:58;;;;;;;2.80;1.55;;;;;;;31.85;29.52;101598.03;4968507;28;113334;-75
2022/08/13 09:12:27;;;;;;;2.03;1.50;;;;;;;31.95;29.15;101610.38;4968328;28;114198;-75
2022/08/13 09:14:57;;;;;;;3.60;1.70;;;;;;;32.04;29.35;101602.06;4952399;28;122345;-74
2022/08/13 09:17:27;;;;;;;4.00;1.80;;;;;;;32.15;28.83;101593.34;4941891;28;122711;-74
2022/08/13 09:20:16;;;;;;;4.85;1.70;;;;;;;32.23;28.59;101589.63;4970711;28;114756;-75
2022/08/13 09:22:47;;;;;;;2.85;1.70;;;;;;;32.32;28.97;101594.78;4972309;28;112833;-75
2022/08/13 09:25:26;;;;;;;4.97;1.70;;;;;;;32.48;28.62;101601.09;4951070;28;122877;-74
2022/08/13 09:27:54;;;;;;;2.38;1.80;;;;;;;32.59;28.23;101595.13;4963466;28;122680;-74
2022/08/13 09:30:45;;;;;;;;;;;;;;;32.63;29.22;101593.66;4970909;28;113798;-74
2022/08/13 09:33:18;;;;;;;2.20;1.67;;;;;;;32.75;28.70;101594.81;4952479;28;114082;-75
2022/08/13 09:36:09;;;;;;;3.17;1.52;;;;;;;32.87;27.35;101594.28;4951910;28;123115;-75
2022/08/13 09:38:48;;;;;;;2.10;1.40;;;;;;;32.97;27.81;101586.56;4965979;28;123647;-74
2022/08/13 09:41:24;;;;;;;4.00;1.60;;;;;;;33.07;27.62;101587.03;4966582;28;112408;-75
2022/08/13 09:43:53;;;;;;;3.38;1.55;;;;;;;33.19;27.93;101581.03;4973601;28;97447;-74
2022/08/13 09:46:23;;;;;;;2.42;1.42;;;;;;;33.31;26.30;101582.19;4953290;28;123903;-75
2022/08/13 09:48:56;;;;;;;4.20;1.52;;;;;;;33.40;26.94;101586.47;4953102;28;121942;-75
2022/08/13 09:51:34;;;;;;;2.28;1.55;;;;;;;33.47;26.41;101587.31;4963702;28;114687;-75
2022/08/13 09:54:24;;;;;;;2.00;1.50;;;;;;;33.53;26.11;101574.66;4970997;28;114772;-74
2022/08/13 09:56:58;;;;;;;1.58;1.20;;;;;;;33.56;26.03;101580.59;4983620;28;124087;-74
2022/08/13 09:59:29;;;;;;;2.85;1.38;;;;;;;33.63;25.63;101585.31;4983215;28;124422;-74
2022/08/13 10:02:09;;;;;;;2.40;1.30;;;;;;;33.68;26.31;101577.31;4974800;28;113954;-74
2022/08/13 10:04:43;;;;;;;2.38;1.25;;;;;;;33.75;26.40;101572.69;4989913;28;113005;-74
2022/08/13 10:07:14;;;;;;;1.98;1.20;;;;;;;33.87;26.47;101568.31;4990477;28;123356;-74
2022/08/13 10:09:47;;;;;;;4.35;1.50;;;;;;;34.03;25.96;101566.25;4975357;28;124096;-74
2022/08/13 10:12:34;;;;;;;3.00;1.40;;;;;;;34.18;26.06;101558.69;4949787;28;113559;-75
2022/08/13 10:15:01;;;;;;;1.65;1.15;;;;;;;34.27;26.44;101560.19;4945272;28;113363;-75
2022/08/13 10:17:43;;;;;;;1.92;1.52;;;;;;;34.34;25.73;101560.22;4949131;28;123028;-74
2022/08/13 10:20:24;;;;;;;2.83;1.38;;;;;;;34.39;25.76;101551.31;4966008;28;122818;-74
2022/08/13 10:22:53;;;;;;;2.00;1.38;;;;;;;34.46;25.15;101547.53;4967763;28;114249;-74
2022/08/13 10:25:23;;;;;;;2.28;1.30;;;;;;;34.51;24.91;101549.66;4963447;28;114596;-74
2022/08/13 10:27:57;;;;;;;1.80;1.35;;;;;;;34.54;24.35;101549.22;4965697;28;123332;-75
2022/08/13 10:30:27;;;;;;;2.33;1.40;;;;;;;34.57;23.97;101548.81;4958993;28;124550;-74
2022/08/13 10:33:15;;;;;;;1.92;1.35;;;;;;;34.59;24.53;101546.69;4960428;28;114202;-74
2022/08/13 10:35:45;;;;;;;2.33;1.30;;;;;;;34.66;23.86;101547.53;4968105;28;113944;-75
2022/08/13 10:38:20;;;;;;;2.28;1.58;;;;;;;34.67;23.60;101549.25;4963770;28;124478;-74
2022/08/13 10:41:10;;;;;;;3.28;1.40;;;;;;;34.62;23.67;101548.16;4965983;28;124694;-75
2022/08/13 10:43:40;;;;;;;1.90;1.25;;;;;;;34.62;24.28;101540.75;4948231;28;116364;-75
2022/08/13 10:46:22;;;;;;;3.53;1.20;;;;;;;34.69;24.12;101546.28;4965633;28;114204;-74
2022/08/13 10:48:56;;;;;;;2.05;1.27;;;;;;;34.76;23.55;101540.78;4950153;28;124424;-74
2022/08/13 10:51:27;;;;;;;1.63;1.30;;;;;;;34.80;23.72;101542.06;4965866;28;124142;-74
2022/08/13 10:53:59;;;;;;;2.53;1.40;;;;;;;34.90;23.57;101542.44;4950416;28;115278;-74
2022/08/13 10:56:30;;;;;;;1.58;1.17;;;;;;;34.99;22.43;101541.16;4970375;28;113834;-75
2022/08/13 10:59:00;;;;;;;4.53;1.50;;;;;;;35.01;22.89;101540.94;4951870;28;124774;-76
2022/08/13 11:01:29;;;;;;;2.55;1.35;;;;;;;35.03;22.72;101536.91;4970394;28;125014;-75
2022/08/13 11:04:01;;;;;;;3.15;1.10;;;;;;;35.10;23.29;101540.50;4971669;28;113881;-75
2022/08/13 11:06:33;;;;;;;1.85;1.30;;;;;;;35.23;23.08;101533.31;4970332;28;114418;-74
2022/08/13 11:09:05;;;;;;;3.65;1.20;;;;;;;35.31;22.38;101538.56;4951362;28;124123;-74
2022/08/13 11:11:54;;;;;;;2.03;1.40;;;;;;;35.36;21.90;101536.03;4966127;28;123996;-75
2022/08/13 11:14:27;;;;;;;2.13;1.17;;;;;;;35.39;21.49;101530.06;4961368;28;113583;-74
2022/08/13 11:17:03;;;;;;;1.50;1.10;;;;;;;35.40;21.47;101526.25;4945519;28;113164;-74
2022/08/13 11:19:40;;;;;;;2.55;1.20;;;;;;;35.42;21.67;101523.28;4964319;28;122767;-75
2022/08/13 11:22:17;;;;;;;1.92;1.30;;;;;;;35.45;22.25;101529.22;4955893;28;124397;-75
2022/08/13 11:24:59;;;;;;;4.50;1.48;;;;;;;35.52;21.82;101522.81;4953117;28;113198;-74
2022/08/13 11:27:45;;;;;;;3.47;1.30;;;;;;;35.62;21.68;101523.19;4955690;28;114071;-74
2022/08/13 11:30:19;;;;;;;1.58;1.30;;;;;;;35.70;22.10;101520.22;4954580;28;123995;-75
2022/08/13 11:33:04;;;;;;;2.35;1.15;;;;;;;35.75;21.35;101517.63;4966402;28;124210;-74
2022/08/13 11:35:42;;;;;;;1.80;1.20;;;;;;;35.72;20.97;101515.34;4965464;28;114776;-74
2022/08/13 11:38:18;;;;;;;1.70;1.30;;;;;;;35.66;20.71;101513.44;4967430;28;114875;-74
2022/08/13 11:40:48;;;;;;;2.00;1.10;;;;;;;35.64;21.19;101510.03;4967310;28;123797;-74
2022/08/13 11:43:23;;;;;;;1.75;1.20;;;;;;;35.65;20.50;101504.31;4956119;28;124307;-75
2022/08/13 11:46:10;;;;;;;1.45;1.02;;;;;;;35.67;20.76;101504.09;4967775;28;114175;-75
2022/08/13 11:48:41;;;;;;;3.28;1.20;;;;;;;35.70;20.67;101503.69;4950151;28;113108;-75
2022/08/13 11:51:20;;;;;;;1.65;1.10;;;;;;;35.76;20.79;101491.78;4962767;28;124245;-74
2022/08/13 11:53:47;;;;;;;1.92;1.10;;;;;;;35.82;20.37;101490.03;4966695;28;123076;-75
2022/08/13 11:56:34;;;;;;;1.40;1.10;;;;;;;35.84;20.85;101494.25;4951672;28;113272;-75
2022/08/13 11:59:16;;;;;;;1.58;1.20;;;;;;;35.88;19.83;101486.38;4967380;28;113251;-74
2022/08/13 12:01:44;;;;;;;1.55;1.00;;;;;;;35.90;19.82;101491.69;4963851;28;123744;-74
2022/08/13 12:04:15;;;;;;;1.80;1.10;;;;;;;35.89;20.31;101490.84;4959305;28;123591;-74
2022/08/13 12:06:52;;;;;;;3.63;1.10;;;;;;;35.90;20.20;101481.50;4949294;28;113231;-74
2022/08/13 12:09:20;;;;;;;1.60;1.17;;;;;;;35.95;19.46;101489.13;4948602;28;112896;-74
2022/08/13 12:12:08;;;;;;;1.48;1.10;;;;;;;36.03;20.27;101488.84;4960693;28;124033;-75
2022/08/13 12:14:48;;;;;;;1.60;1.30;;;;;;;36.12;20.00;101490.25;4961597;28;123801;-74
2022/08/13 12:17:17;;;;;;;2.67;1.17;;;;;;;36.19;19.84;101481.97;4962270;28;114388;-75
2022/08/13 12:20:06;;;;;;;3.47;1.10;;;;;;;36.20;19.77;101481.72;4944207;28;113364;-75